Time;durP1;ratioP1;P1;durP2;ratioP2;P2;SDS_P1;SDS_P2;PMS_P1;PMS_P2;Temp;Humidity;BMP_temperature;BMP_pressure;BME280_temperature;BME280_humidity;BME280_pressure;Samples;Min_cycle;Max_cycle;Signal;HPM_P1;HPM_P2
2023/02/06 00:01:33;;;;;;;;;;;;;;;25.08;31.13;95785.03;4949472;28;1316;-66
2023/02/06 00:03:58;;;;;;;;;;;;;;;25.08;31.12;95803.00;4936384;28;1403;-66
2023/02/06 00:06:23;;;;;;;;;;;;;;;25.08;31.29;95803.84;4941119;29;1288;-66
2023/02/06 00:08:49;;;;;;;;;;;;;;;25.08;31.04;95803.84;4949580;29;1458;-66
2023/02/06 00:11:15;;;;;;;;;;;;;;;25.10;31.22;95799.06;4942994;29;1326;-66
2023/02/06 00:13:41;;;;;;;;;;;;;;;25.11;31.31;95808.78;4943877;28;1363;-66
2023/02/06 00:16:14;;;;;;;;;;;;;;;25.11;31.26;95811.47;4932053;28;1268;-66
2023/02/06 00:18:39;;;;;;;;;;;;;;;25.10;31.34;95806.28;4939146;29;1899;-67
2023/02/06 00:21:04;;;;;;;;;;;;;;;25.12;31.46;95814.97;4953435;29;1446;-67
2023/02/06 00:23:29;;;;;;;;;;;;;;;25.11;31.33;95816.81;4963209;28;1354;-67
2023/02/06 00:25:55;;;;;;;;;;;;;;;25.11;31.25;95813.31;4941963;29;1407;-67
2023/02/06 00:28:20;;;;;;;;;;;;;;;25.11;31.78;95805.25;4935045;28;1371;-67
2023/02/06 00:30:46;;;;;;;;;;;;;;;25.08;31.73;95814.56;4946140;29;1311;-67
2023/02/06 00:33:11;;;;;;;;;;;;;;;25.10;31.76;95809.81;4941292;28;1394;-67
2023/02/06 00:35:36;;;;;;;;;;;;;;;25.09;31.62;95821.56;4946035;29;1481;-65
2023/02/06 00:38:02;;;;;;;;;;;;;;;25.15;32.09;95821.78;4927750;29;1956;-66
2023/02/06 00:40:27;;;;;;;;;;;;;;;25.14;31.81;95818.28;4940395;29;1398;-66
2023/02/06 00:42:53;;;;;;;;;;;;;;;25.14;31.97;95823.66;4949283;29;1418;-66
2023/02/06 00:45:18;;;;;;;;;;;;;;;25.11;31.67;95826.75;4948410;29;1367;-65
2023/02/06 00:47:43;;;;;;;;;;;;;;;25.11;31.91;95826.75;4954106;29;1474;-66
2023/02/06 00:50:08;;;;;;;;;;;;;;;25.08;31.69;95835.22;4932528;29;1339;-66
2023/02/06 00:52:34;;;;;;;;;;;;;;;25.08;31.88;95835.22;4948833;29;1457;-67
2023/02/06 00:54:59;;;;;;;;;;;;;;;25.10;31.98;95827.75;4948614;28;1410;-66
2023/02/06 00:57:24;;;;;;;;;;;;;;;25.10;31.75;95827.75;4963349;28;1903;-67
2023/02/06 00:59:49;;;;;;;;;;;;;;;25.09;31.95;95828.81;4952321;29;1347;-67
2023/02/06 01:02:15;;;;;;;;;;;;;;;25.07;32.13;95838.94;4941453;29;1283;-67
2023/02/06 01:04:40;;;;;;;;;;;;;;;25.11;32.10;95834.81;4945036;29;1352;-67
2023/02/06 01:07:05;;;;;;;;;;;;;;;25.11;32.07;95835.63;4954309;29;1454;-67
2023/02/06 01:09:31;;;;;;;;;;;;;;;25.12;32.16;95837.25;4954330;29;1485;-67
2023/02/06 01:11:56;;;;;;;;;;;;;;;25.10;32.18;95835.81;4946293;29;1482;-68
2023/02/06 01:14:21;;;;;;;;;;;;;;;25.11;32.09;95840.16;4949159;28;1344;-67
2023/02/06 01:16:46;;;;;;;;;;;;;;;25.10;32.10;95846.56;4954181;29;1946;-68
2023/02/06 01:19:12;;;;;;;;;;;;;;;25.11;32.30;95850.91;4941356;29;1462;-67
2023/02/06 01:21:37;;;;;;;;;;;;;;;25.09;32.20;95852.97;4959076;28;1470;-67
2023/02/06 01:24:02;;;;;;;;;;;;;;;25.09;32.17;95853.81;4957518;28;1411;-67
2023/02/06 01:26:28;;;;;;;;;;;;;;;25.07;32.39;95857.72;4953044;29;1426;-67
2023/02/06 01:28:54;;;;;;;;;;;;;;;25.08;32.46;95856.72;4954207;29;1430;-66
2023/02/06 01:31:24;;;;;;;;;;;;;;;25.06;32.56;95858.78;4970947;28;1416;-67
2023/02/06 01:33:49;;;;;;;;;;;;;;;25.05;32.31;95859.81;4950945;29;1290;-67
2023/02/06 01:36:15;;;;;;;;;;;;;;;25.06;32.58;95864.16;4948202;28;1065;-66
2023/02/06 01:38:41;;;;;;;;;;;;;;;25.09;32.66;95858.34;4939617;28;1907;-67
2023/02/06 01:41:07;;;;;;;;;;;;;;;25.06;32.46;95867.66;4953253;29;1245;-67
2023/02/06 01:43:33;;;;;;;;;;;;;;;25.07;32.54;95871.16;4947600;29;1442;-67
2023/02/06 01:45:58;;;;;;;;;;;;;;;25.06;32.98;95873.03;4940364;28;1464;-67
2023/02/06 01:48:30;;;;;;;;;;;;;;;25.09;32.66;95863.72;4949979;28;1388;-67
2023/02/06 01:50:56;;;;;;;;;;;;;;;25.09;32.69;95874.47;4947489;28;1327;-68
2023/02/06 01:53:22;;;;;;;;;;;;;;;25.10;32.84;95870.72;4946903;29;1308;-67
2023/02/06 01:55:50;;;;;;;;;;;;;;;25.09;32.71;95871.78;4940204;29;1390;-67
2023/02/06 01:58:18;;;;;;;;;;;;;;;25.08;32.62;95872.81;4936356;29;1969;-67
2023/02/06 02:00:43;;;;;;;;;;;;;;;25.08;32.94;95875.50;4943642;29;1463;-67
2023/02/06 02:03:08;;;;;;;;;;;;;;;25.09;33.14;95871.78;4950116;28;1331;-67
2023/02/06 02:05:34;;;;;;;;;;;;;;;25.09;32.79;95874.47;4951455;29;1379;-67
2023/02/06 02:08:03;;;;;;;;;;;;;;;25.09;33.05;95879.81;4950654;28;1334;-67
2023/02/06 02:10:29;;;;;;;;;;;;;;;25.10;32.98;95876.09;4960253;28;1327;-67
2023/02/06 02:12:54;;;;;;;;;;;;;;;25.10;32.83;95870.72;4940034;28;1318;-66
2023/02/06 02:15:22;;;;;;;;;;;;;;;25.11;32.97;95875.06;4951358;29;1446;-67
2023/02/06 02:17:57;;;;;;;;;;;;;;;25.11;32.96;95873.22;4947122;29;1906;-67
2023/02/06 02:20:23;;;;;;;;;;;;;;;25.10;32.89;95876.09;4948689;28;1335;-67
2023/02/06 02:22:48;;;;;;;;;;;;;;;25.13;33.14;95875.66;4950082;29;1309;-67
2023/02/06 02:25:34;;;;;;;;;;;;;;;25.17;33.04;95878.81;4946686;29;1604;-66
2023/02/06 02:28:15;;;;;;;;;;;;;;;25.16;33.06;95878.00;4953343;28;1362;-67
2023/02/06 02:30:58;;;;;;;;;;;;;;;25.15;33.08;95889.75;4952577;29;1425;-67
2023/02/06 02:33:29;;;;;;;;;;;;;;;25.16;33.04;95896.78;4950777;28;1386;-67
2023/02/06 02:36:04;;;;;;;;;;;;;;;25.14;33.00;95898.84;4951497;29;1454;-67
2023/02/06 02:38:41;;;;;;;;;;;;;;;25.11;32.90;95900.06;4951940;28;1895;-65
2023/02/06 02:41:30;;;;;;;;;;;;;;;25.14;33.02;95893.47;4946115;28;1471;-65
2023/02/06 02:44:00;;;;;;;;;;;;;;;25.14;32.91;95893.47;4926031;29;1304;-66
2023/02/06 02:46:34;;;;;;;;;;;;;;;25.12;32.75;95890.97;4950479;28;1426;-66
2023/02/06 02:49:05;;;;;;;;;;;;;;;25.11;33.18;95889.31;4950422;28;1391;-66
2023/02/06 02:51:31;;;;;;;;;;;;;;;25.10;33.07;95889.53;4949848;29;1327;-66
2023/02/06 02:53:57;;;;;;;;;;;;;;;25.09;32.78;95895.94;4941998;29;1415;-66
2023/02/06 02:56:24;;;;;;;;;;;;;;;25.10;32.91;95900.25;4944430;28;1449;-66
2023/02/06 02:58:52;;;;;;;;;;;;;;;25.11;32.82;95908.13;4941276;29;1939;-66
2023/02/06 03:01:19;;;;;;;;;;;;;;;25.10;33.02;95898.44;4955925;28;1351;-65
2023/02/06 03:03:46;;;;;;;;;;;;;;;25.12;33.08;95911.63;4949245;28;1393;-66
2023/02/06 03:06:20;;;;;;;;;;;;;;;25.11;33.10;95915.34;4938987;28;1355;-66
2023/02/06 03:09:01;;;;;;;;;;;;;;;25.13;32.92;95921.31;4949046;29;1459;-66
2023/02/06 03:11:27;;;;;;;;;;;;;;;25.12;33.20;95917.00;4944537;28;1362;-66
2023/02/06 03:13:54;;;;;;;;;;;;;;;25.11;33.04;95905.44;4960449;28;1429;-66
2023/02/06 03:16:25;;;;;;;;;;;;;;;25.03;33.16;95904.84;4958772;28;1481;-66
2023/02/06 03:18:53;;;;;;;;;;;;;;;25.10;33.27;95919.06;4939001;28;1915;-65
2023/02/06 03:21:20;;;;;;;;;;;;;;;25.10;33.35;95917.22;4948010;29;1322;-66
2023/02/06 03:23:47;;;;;;;;;;;;;;;25.12;33.32;95908.94;4951888;28;1359;-65
2023/02/06 03:26:14;;;;;;;;;;;;;;;25.11;33.47;95916.19;4942958;29;1442;-66
2023/02/06 03:28:42;;;;;;;;;;;;;;;25.10;33.53;95922.59;4944513;28;1395;-66
2023/02/06 03:31:09;;;;;;;;;;;;;;;25.11;33.45;95920.72;4943326;29;1311;-66
2023/02/06 03:33:38;;;;;;;;;;;;;;;25.11;33.59;95926.91;4949624;28;1409;-66
2023/02/06 03:36:04;;;;;;;;;;;;;;;25.11;33.42;95926.09;4938360;29;1327;-67
2023/02/06 03:38:29;;;;;;;;;;;;;;;25.09;33.42;95922.78;4944293;29;1964;-66
2023/02/06 03:40:56;;;;;;;;;;;;;;;25.08;33.43;95918.47;4933494;28;1382;-66
2023/02/06 03:43:24;;;;;;;;;;;;;;;25.09;33.67;95917.41;4951685;28;1486;-66
2023/02/06 03:45:50;;;;;;;;;;;;;;;25.10;33.45;95914.53;4948057;29;1327;-67
2023/02/06 03:48:33;;;;;;;;;;;;;;;25.11;33.47;95915.34;4944287;29;1419;-67
2023/02/06 03:51:01;;;;;;;;;;;;;;;25.07;33.71;95914.13;4930795;29;1504;-66
2023/02/06 03:53:27;;;;;;;;;;;;;;;25.18;33.51;95920.72;4948660;28;1279;-67
2023/02/06 03:55:55;;;;;;;;;;;;;;;25.21;33.81;95925.66;4941783;28;1409;-67
2023/02/06 03:58:21;;;;;;;;;;;;;;;25.26;33.61;95923.19;4946014;29;1915;-67
2023/02/06 04:00:47;;;;;;;;;;;;;;;25.26;33.54;95913.25;4942926;28;1319;-67
2023/02/06 04:03:13;;;;;;;;;;;;;;;25.26;33.40;95913.25;4940421;28;1429;-69
2023/02/06 04:05:38;;;;;;;;;;;;;;;25.33;33.59;95924.81;4949073;29;1466;-67
2023/02/06 04:08:04;;;;;;;;;;;;;;;25.34;33.26;95921.06;4945153;28;1272;-67
2023/02/06 04:10:29;;;;;;;;;;;;;;;25.32;33.22;95920.44;4943674;28;1331;-66
2023/02/06 04:12:54;;;;;;;;;;;;;;;25.39;32.97;95927.66;4947013;29;1363;-67
2023/02/06 04:15:20;;;;;;;;;;;;;;;25.34;32.82;95931.00;4940471;28;1240;-67
2023/02/06 04:17:45;;;;;;;;;;;;;;;25.26;32.83;95934.72;4945182;29;1907;-67
2023/02/06 04:20:10;;;;;;;;;;;;;;;25.25;32.60;95927.72;4953031;29;1394;-67
2023/02/06 04:22:35;;;;;;;;;;;;;;;25.23;32.65;95931.66;4943639;29;1421;-67
2023/02/06 04:25:01;;;;;;;;;;;;;;;25.19;32.49;95933.09;4944243;28;1315;-66
2023/02/06 04:27:26;;;;;;;;;;;;;;;25.19;32.20;95933.09;4943467;29;1425;-67
2023/02/06 04:29:51;;;;;;;;;;;;;;;25.18;32.11;95936.84;4953052;29;1402;-66
2023/02/06 04:32:17;;;;;;;;;;;;;;;25.15;32.42;95938.09;4950490;28;1370;-65
2023/02/06 04:34:42;;;;;;;;;;;;;;;22.47;23.92;95936.00;4953670;29;1636;-66
2023/02/06 04:37:07;;;;;;;;;;;;;;;21.02;22.96;95944.94;4936462;29;1988;-67
2023/02/06 04:39:33;;;;;;;;;;;;;;;20.17;22.62;95936.28;4943362;29;1418;-69
2023/02/06 04:41:58;;;;;;;;;;;;;;;19.57;22.27;95933.59;4942983;28;1342;-66
2023/02/06 04:44:24;;;;;;;;;;;;;;;18.87;21.44;95937.94;4952689;29;1402;-66
2023/02/06 04:46:49;;;;;;;;;;;;;;;18.24;20.62;95936.03;4942609;29;1326;-78
2023/02/06 04:49:14;;;;;;;;;;;;;;;18.40;21.99;95936.03;4932485;29;1319;-67
2023/02/06 04:51:40;;;;;;;;;;;;;;;18.66;22.07;95930.47;4951597;28;1319;-66
2023/02/06 04:54:05;;;;;;;;;;;;;;;19.72;23.63;95931.84;4951171;29;1425;-67
2023/02/06 04:56:30;;;;;;;;;;;;;;;20.55;23.90;95928.31;4953397;28;1417;-67
2023/02/06 04:58:56;;;;;;;;;;;;;;;21.18;23.73;95936.75;4933346;28;1911;-67
2023/02/06 05:01:21;;;;;;;;;;;;;;;21.64;23.91;95933.00;4940396;29;1229;-67
2023/02/06 05:03:47;;;;;;;;;;;;;;;21.97;24.03;95942.16;4954934;29;882;-67
2023/02/06 05:06:13;;;;;;;;;;;;;;;22.17;24.14;95944.16;4953457;28;1385;-78
2023/02/06 05:08:38;;;;;;;;;;;;;;;22.46;24.89;95943.19;4939444;29;839;-69
2023/02/06 05:11:04;;;;;;;;;;;;;;;21.81;23.57;95939.72;4930571;29;1374;-78
2023/02/06 05:13:29;;;;;;;;;;;;;;;21.91;24.83;95944.75;4949843;29;1229;-69
2023/02/06 05:15:56;;;;;;;;;;;;;;;22.15;24.96;95936.34;4957417;29;1189;-68
2023/02/06 05:18:22;;;;;;;;;;;;;;;22.29;25.34;95947.19;4958245;29;1959;-69
2023/02/06 05:20:47;;;;;;;;;;;;;;;22.49;25.41;95953.50;4956619;28;1287;-69
2023/02/06 05:23:12;;;;;;;;;;;;;;;22.65;25.79;95952.38;4946848;28;1212;-69
2023/02/06 05:25:37;;;;;;;;;;;;;;;22.75;25.75;95968.09;4958137;29;826;-69
2023/02/06 05:28:05;;;;;;;;;;;;;;;22.85;25.95;95973.91;4958405;29;917;-70
2023/02/06 05:30:31;;;;;;;;;;;;;;;22.92;25.77;95974.78;4969215;28;1355;-67
2023/02/06 05:32:56;;;;;;;;;;;;;;;22.98;25.84;95974.03;4948849;29;1270;-68
2023/02/06 05:35:22;;;;;;;;;;;;;;;23.03;25.89;95979.63;4948471;29;1408;-67
2023/02/06 05:37:47;;;;;;;;;;;;;;;23.05;26.03;95974.91;4938739;29;1970;-67
2023/02/06 05:40:12;;;;;;;;;;;;;;;23.07;26.11;95988.88;4938507;29;1364;-68
2023/02/06 05:42:37;;;;;;;;;;;;;;;23.10;26.07;95993.84;4938851;29;889;-67
2023/02/06 05:45:03;;;;;;;;;;;;;;;23.13;26.28;95996.13;4928971;29;1140;-67
2023/02/06 05:47:28;;;;;;;;;;;;;;;23.16;26.13;95997.59;4938706;29;948;-67
2023/02/06 05:49:53;;;;;;;;;;;;;;;23.18;26.30;95986.69;4938863;29;854;-67
2023/02/06 05:52:19;;;;;;;;;;;;;;;23.21;26.39;96002.34;4938595;29;950;-66
2023/02/06 05:54:44;;;;;;;;;;;;;;;23.23;26.40;96005.69;4953145;29;1442;-67
2023/02/06 05:57:09;;;;;;;;;;;;;;;23.25;26.31;96006.28;4928714;29;1975;-67
2023/02/06 05:59:35;;;;;;;;;;;;;;;23.28;26.30;96005.88;4953140;29;1324;-68
2023/02/06 06:02:00;;;;;;;;;;;;;;;23.28;26.33;96006.72;4938666;29;809;-68
2023/02/06 06:04:26;;;;;;;;;;;;;;;23.31;26.56;96002.84;4938637;29;787;-67
2023/02/06 06:06:51;;;;;;;;;;;;;;;23.33;26.46;96006.13;4934000;29;1148;-66
2023/02/06 06:09:16;;;;;;;;;;;;;;;23.35;26.49;96009.44;4933061;29;1102;-67
2023/02/06 06:11:41;;;;;;;;;;;;;;;23.38;26.52;96005.53;4938432;29;845;-67
2023/02/06 06:14:07;;;;;;;;;;;;;;;23.37;26.38;96012.75;4938170;29;849;-67
2023/02/06 06:16:32;;;;;;;;;;;;;;;23.39;26.46;96020.56;4938269;29;857;-66
2023/02/06 06:18:57;;;;;;;;;;;;;;;23.40;26.64;96004.31;4928565;29;1906;-67
2023/02/06 06:21:23;;;;;;;;;;;;;;;23.37;26.54;95996.69;4936361;29;1119;-66
2023/02/06 06:23:48;;;;;;;;;;;;;;;23.38;26.73;96011.72;4938400;29;787;-67
2023/02/06 06:26:14;;;;;;;;;;;;;;;23.39;26.83;96005.31;4938188;29;785;-67
2023/02/06 06:28:39;;;;;;;;;;;;;;;23.41;26.54;96008.63;4937917;29;785;-67
2023/02/06 06:31:06;;;;;;;;;;;;;;;23.44;26.68;96024.31;4928190;29;1079;-67
2023/02/06 06:33:32;;;;;;;;;;;;;;;23.44;26.78;96026.97;4938061;29;779;-67
2023/02/06 06:35:58;;;;;;;;;;;;;;;23.47;26.96;96018.53;4952462;29;1098;-66
2023/02/06 06:38:23;;;;;;;;;;;;;;;23.51;26.75;96027.84;4936304;29;1894;-67
2023/02/06 06:40:48;;;;;;;;;;;;;;;23.51;26.78;96027.84;4935459;29;1292;-67
2023/02/06 06:43:14;;;;;;;;;;;;;;;23.51;26.81;96035.88;4929984;29;990;-67
2023/02/06 06:45:39;;;;;;;;;;;;;;;23.44;26.74;96036.88;4937890;29;832;-67
2023/02/06 06:48:04;;;;;;;;;;;;;;;23.41;27.03;96030.06;4937546;29;870;-67
2023/02/06 06:50:30;;;;;;;;;;;;;;;23.40;27.01;96036.44;4937500;29;779;-67
2023/02/06 06:52:55;;;;;;;;;;;;;;;23.46;27.03;96038.31;4929157;29;1091;-67
2023/02/06 06:55:20;;;;;;;;;;;;;;;23.53;26.97;96030.31;4936444;29;1014;-67
2023/02/06 06:57:46;;;;;;;;;;;;;;;23.57;26.94;96032.41;4937509;29;1970;-67
2023/02/06 07:00:11;;;;;;;;;;;;;;;23.60;26.97;96035.72;4937290;29;947;-68
2023/02/06 07:02:37;;;;;;;;;;;;;;;23.60;26.99;96043.75;4937302;29;864;-67
2023/02/06 07:05:02;;;;;;;;;;;;;;;23.61;26.86;96048.06;4927454;29;1072;-66
2023/02/06 07:07:28;;;;;;;;;;;;;;;23.62;26.81;96049.72;4937204;29;800;-66
2023/02/06 07:09:53;;;;;;;;;;;;;;;23.63;26.96;96056.75;4937098;29;860;-66
2023/02/06 07:12:18;;;;;;;;;;;;;;;23.63;26.91;96056.75;4937041;29;893;-67
2023/02/06 07:14:44;;;;;;;;;;;;;;;23.63;27.01;96059.44;4937049;29;881;-66
2023/02/06 07:17:09;;;;;;;;;;;;;;;23.66;26.77;96061.72;4941740;28;1950;-66
2023/02/06 07:19:34;;;;;;;;;;;;;;;23.65;26.98;96055.53;4936996;29;905;-67
2023/02/06 07:21:59;;;;;;;;;;;;;;;23.66;26.80;96062.53;4936950;29;972;-66
2023/02/06 07:24:25;;;;;;;;;;;;;;;23.67;26.86;96063.34;4936888;29;862;-68
2023/02/06 07:26:50;;;;;;;;;;;;;;;23.68;26.84;96067.66;4932223;29;1070;-67
2023/02/06 07:29:15;;;;;;;;;;;;;;;23.69;26.92;96066.66;4931363;29;1208;-67
2023/02/06 07:31:40;;;;;;;;;;;;;;;23.70;26.96;96065.63;4936829;29;882;-66
2023/02/06 07:34:06;;;;;;;;;;;;;;;23.70;26.97;96077.19;4937086;29;791;-66
2023/02/06 07:36:31;;;;;;;;;;;;;;;23.71;27.05;96080.72;4936744;29;881;-67
2023/02/06 07:38:56;;;;;;;;;;;;;;;23.70;27.03;96079.88;4926998;29;1973;-67
2023/02/06 07:41:21;;;;;;;;;;;;;;;23.71;26.82;96083.41;4936320;29;1448;-67
2023/02/06 07:43:47;;;;;;;;;;;;;;;23.72;26.85;96082.38;4936488;29;811;-66
2023/02/06 07:46:12;;;;;;;;;;;;;;;23.72;27.03;96082.38;4936756;29;832;-67
2023/02/06 07:48:37;;;;;;;;;;;;;;;23.73;26.99;96078.66;4936468;29;858;-67
2023/02/06 07:51:04;;;;;;;;;;;;;;;23.74;27.06;96077.66;4926793;29;1195;-67
2023/02/06 07:53:29;;;;;;;;;;;;;;;23.77;27.07;96079.94;4936311;29;1013;-67
2023/02/06 07:55:55;;;;;;;;;;;;;;;23.79;27.01;96083.22;4936552;29;886;-67
2023/02/06 07:58:20;;;;;;;;;;;;;;;23.79;26.98;96083.22;4936237;29;1918;-67
2023/02/06 08:00:45;;;;;;;;;;;;;;;23.80;26.85;96084.88;4931715;29;974;-67
2023/02/06 08:03:10;;;;;;;;;;;;;;;23.82;27.11;96087.34;4929864;29;1326;-67
2023/02/06 08:05:39;;;;;;;;;;;;;;;23.82;27.02;96090.84;4936243;29;814;-67
2023/02/06 08:08:04;;;;;;;;;;;;;;;23.83;27.14;96084.47;4936197;29;869;-67
2023/02/06 08:10:30;;;;;;;;;;;;;;;23.85;26.99;96086.94;4936400;29;768;-67
2023/02/06 08:12:55;;;;;;;;;;;;;;;23.85;27.01;96077.09;4926299;29;1087;-67
2023/02/06 08:15:20;;;;;;;;;;;;;;;23.90;27.10;96079.13;4936030;29;952;-67
2023/02/06 08:17:46;;;;;;;;;;;;;;;23.92;27.13;96071.72;4935963;29;1910;-66
2023/02/06 08:20:12;;;;;;;;;;;;;;;23.93;27.10;96078.75;4935935;29;858;-67
2023/02/06 08:22:37;;;;;;;;;;;;;;;23.95;26.92;96087.41;4935915;29;957;-67
2023/02/06 08:25:03;;;;;;;;;;;;;;;23.96;27.02;96092.59;4926163;29;1035;-66
2023/02/06 08:27:28;;;;;;;;;;;;;;;23.98;27.13;96093.19;4936097;29;859;-66
2023/02/06 08:29:56;;;;;;;;;;;;;;;23.98;26.96;96087.00;4936048;29;876;-67
2023/02/06 08:32:21;;;;;;;;;;;;;;;23.99;27.18;96099.38;4935730;29;803;-66
2023/02/06 08:34:46;;;;;;;;;;;;;;;23.97;27.06;96104.94;4931321;29;953;-66
2023/02/06 08:37:11;;;;;;;;;;;;;;;23.99;27.19;96100.22;4930522;29;1906;-66
2023/02/06 08:39:37;;;;;;;;;;;;;;;23.99;26.94;96108.28;4950375;29;1415;-66
2023/02/06 08:42:02;;;;;;;;;;;;;;;24.00;27.26;96112.59;4934148;29;1318;-67
2023/02/06 08:44:27;;;;;;;;;;;;;;;24.03;27.19;96108.69;4935608;29;849;-67
2023/02/06 08:46:53;;;;;;;;;;;;;;;24.02;26.99;96112.38;4925954;29;1132;-67
2023/02/06 08:49:19;;;;;;;;;;;;;;;24.04;27.16;96109.50;4935353;29;1358;-67
2023/02/06 08:51:45;;;;;;;;;;;;;;;24.05;27.09;96103.09;4935498;29;865;-66
2023/02/06 08:54:11;;;;;;;;;;;;;;;24.04;26.91;96112.19;4935444;29;907;-66
2023/02/06 08:56:37;;;;;;;;;;;;;;;24.04;27.18;96117.56;4950175;29;1232;-67
2023/02/06 08:59:02;;;;;;;;;;;;;;;24.04;27.07;96115.69;4925645;29;1954;-66
2023/02/06 09:01:28;;;;;;;;;;;;;;;24.05;27.15;96119.19;4935811;29;818;-67
2023/02/06 09:03:54;;;;;;;;;;;;;;;24.05;27.21;96119.19;4935438;29;898;-67
2023/02/06 09:06:20;;;;;;;;;;;;;;;24.04;27.02;96114.88;4935496;29;950;-66
2023/02/06 09:08:45;;;;;;;;;;;;;;;24.03;27.20;96122.09;4930871;29;943;-67
2023/02/06 09:11:12;;;;;;;;;;;;;;;24.04;27.26;96118.38;4930428;29;1157;-66
2023/02/06 09:13:38;;;;;;;;;;;;;;;24.05;26.92;96111.16;4935335;29;863;-66
2023/02/06 09:16:03;;;;;;;;;;;;;;;24.05;27.03;96112.00;4935639;29;823;-66
2023/02/06 09:18:29;;;;;;;;;;;;;;;24.05;27.10;96108.47;4935213;29;1898;-66
2023/02/06 09:21:11;;;;;;;;;;;;;;;24.06;27.20;96110.13;4926016;29;986;-66
2023/02/06 09:23:43;;;;;;;;;;;;;;;24.05;27.08;96113.81;4935360;29;865;-67
2023/02/06 09:26:09;;;;;;;;;;;;;;;24.05;27.22;96109.31;4935374;29;822;-67
2023/02/06 09:28:35;;;;;;;;;;;;;;;24.07;27.34;96107.25;4935296;29;866;-67
2023/02/06 09:31:00;;;;;;;;;;;;;;;24.08;27.04;96113.44;4935638;29;887;-67
2023/02/06 09:33:26;;;;;;;;;;;;;;;24.08;27.13;96108.91;4925627;29;1042;-68
2023/02/06 09:36:05;;;;;;;;;;;;;;;24.08;27.24;96108.06;4935111;29;834;-67
2023/02/06 09:38:30;;;;;;;;;;;;;;;24.08;27.22;96108.06;4934875;29;1883;-67
2023/02/06 09:40:56;;;;;;;;;;;;;;;24.08;27.21;96103.56;4934851;29;1251;-67
2023/02/06 09:43:22;;;;;;;;;;;;;;;24.09;27.27;96104.38;4926234;29;1061;-68
2023/02/06 09:45:52;;;;;;;;;;;;;;;24.09;27.18;96099.00;4934355;29;1020;-68
2023/02/06 09:48:23;;;;;;;;;;;;;;;24.09;27.07;96089.13;4934899;29;941;-66
2023/02/06 09:50:51;;;;;;;;;;;;;;;24.09;26.92;96094.47;4934984;29;862;-66
2023/02/06 09:53:23;;;;;;;;;;;;;;;24.08;26.96;96092.84;4937826;29;838;-66
2023/02/06 09:56:00;;;;;;;;;;;;;;;24.09;27.34;96089.13;4928656;29;956;-66
2023/02/06 09:58:35;;;;;;;;;;;;;;;24.07;27.12;96085.78;4938236;29;2040;-66
2023/02/06 10:01:29;;;;;;;;;;;;;;;24.07;27.17;96090.34;4938166;29;893;-66
2023/02/06 10:04:01;;;;;;;;;;;;;;;24.07;27.26;96084.97;4937385;29;1258;-66
2023/02/06 10:06:28;;;;;;;;;;;;;;;24.07;27.14;96084.97;4928332;29;1072;-67
2023/02/06 10:09:11;;;;;;;;;;;;;;;24.06;27.01;96083.34;4938106;29;920;-67
2023/02/06 10:11:40;;;;;;;;;;;;;;;24.05;27.27;96073.63;4938337;29;791;-67
2023/02/06 10:14:28;;;;;;;;;;;;;;;24.05;27.09;96084.34;4952899;29;1358;-67
2023/02/06 10:16:56;;;;;;;;;;;;;;;24.04;27.16;96064.75;4933328;29;1967;-67
2023/02/06 10:19:37;;;;;;;;;;;;;;;24.04;27.10;96072.81;4933011;29;1221;-66
2023/02/06 10:22:05;;;;;;;;;;;;;;;24.04;27.19;96069.28;4938149;29;843;-66
2023/02/06 10:24:38;;;;;;;;;;;;;;;24.04;27.22;96061.25;4938019;29;878;-66
2023/02/06 10:27:09;;;;;;;;;;;;;;;24.02;27.27;96062.28;4937925;29;844;-66
2023/02/06 10:29:35;;;;;;;;;;;;;;;24.02;27.03;96064.97;4928079;29;1080;-66
2023/02/06 10:32:00;;;;;;;;;;;;;;;24.02;27.09;96051.56;4937892;29;795;-66
2023/02/06 10:34:31;;;;;;;;;;;;;;;24.02;27.42;96054.25;4937844;29;863;-66
2023/02/06 10:37:22;;;;;;;;;;;;;;;24.01;27.06;96049.91;4952423;29;1906;-67
2023/02/06 10:39:56;;;;;;;;;;;;;;;23.99;27.23;96045.75;4933082;29;1006;-67
2023/02/06 10:42:24;;;;;;;;;;;;;;;23.99;27.27;96051.13;4932864;29;1106;-67
2023/02/06 10:44:55;;;;;;;;;;;;;;;23.99;27.32;96051.13;4937870;29;865;-67
2023/02/06 10:47:23;;;;;;;;;;;;;;;23.99;27.38;96051.13;4937934;29;740;-67
2023/02/06 10:49:55;;;;;;;;;;;;;;;23.97;27.27;96048.66;4937569;29;873;-67
2023/02/06 10:52:23;;;;;;;;;;;;;;;23.98;27.40;96049.47;4927784;29;1157;-67
2023/02/06 10:55:00;;;;;;;;;;;;;;;23.94;27.44;96043.72;4937420;29;992;-67
2023/02/06 10:57:29;;;;;;;;;;;;;;;23.93;27.40;96036.69;4937342;29;1923;-67
2023/02/06 11:00:00;;;;;;;;;;;;;;;23.95;27.22;96033.81;4937369;29;888;-67
2023/02/06 11:02:43;;;;;;;;;;;;;;;23.96;27.42;96047.03;4932649;29;1025;-67
2023/02/06 11:05:13;;;;;;;;;;;;;;;23.95;27.41;96050.72;4931820;29;1107;-67
2023/02/06 11:07:47;;;;;;;;;;;;;;;23.95;27.40;96048.03;4937277;29;945;-67
2023/02/06 11:10:17;;;;;;;;;;;;;;;23.95;27.27;96048.03;4937231;29;874;-67
2023/02/06 11:13:05;;;;;;;;;;;;;;;23.94;27.40;96046.38;4951933;29;1540;-67
2023/02/06 11:15:35;;;;;;;;;;;;;;;23.95;27.45;96039.16;4926936;29;1126;-67
2023/02/06 11:18:02;;;;;;;;;;;;;;;23.93;27.33;96050.06;4937011;29;1891;-67
2023/02/06 11:20:29;;;;;;;;;;;;;;;23.93;27.43;96058.13;4936967;29;819;-67
2023/02/06 11:22:55;;;;;;;;;;;;;;;23.94;27.30;96065.16;4936972;29;844;-67
2023/02/06 11:25:24;;;;;;;;;;;;;;;23.93;27.27;96060.78;4930872;29;963;-66
2023/02/06 11:27:49;;;;;;;;;;;;;;;23.92;27.31;96064.50;4934807;29;1123;-67
2023/02/06 11:30:24;;;;;;;;;;;;;;;23.93;27.16;96051.94;4936837;29;905;-67
2023/02/06 11:32:55;;;;;;;;;;;;;;;23.92;27.43;96053.78;4951478;29;1386;-67
2023/02/06 11:35:27;;;;;;;;;;;;;;;23.92;27.45;96051.13;4936704;29;894;-66
2023/02/06 11:37:53;;;;;;;;;;;;;;;23.91;27.44;96046.78;4926923;29;1906;-67
2023/02/06 11:40:18;;;;;;;;;;;;;;;23.92;27.49;96045.75;4936638;29;1183;-67
2023/02/06 11:42:45;;;;;;;;;;;;;;;23.91;27.49;96043.28;4936691;29;873;-67
2023/02/06 11:45:24;;;;;;;;;;;;;;;23.90;27.48;96047.81;4936602;29;855;-67
2023/02/06 11:47:50;;;;;;;;;;;;;;;23.90;27.58;96038.94;4931790;29;1128;-67
2023/02/06 11:50:15;;;;;;;;;;;;;;;23.89;27.35;96043.47;4931533;29;1042;-67
2023/02/06 11:52:41;;;;;;;;;;;;;;;23.89;27.53;96037.28;4936577;29;954;-67
2023/02/06 11:55:26;;;;;;;;;;;;;;;23.90;27.37;96030.91;4936476;29;936;-67
2023/02/06 11:58:00;;;;;;;;;;;;;;;23.89;27.37;96035.44;4935025;29;1968;-67
2023/02/06 12:00:25;;;;;;;;;;;;;;;23.89;27.49;96030.06;4941143;28;1576;-67
2023/02/06 12:02:51;;;;;;;;;;;;;;;23.87;27.38;96039.34;4936351;29;840;-67
2023/02/06 12:05:18;;;;;;;;;;;;;;;23.89;27.43;96032.75;4936525;29;935;-66
2023/02/06 12:07:52;;;;;;;;;;;;;;;23.89;27.35;96032.75;4936130;29;853;-67
2023/02/06 12:10:19;;;;;;;;;;;;;;;23.86;27.33;96029.66;4931861;29;948;-66
2023/02/06 12:12:48;;;;;;;;;;;;;;;23.86;27.53;96027.81;4929529;28;1235;-66
2023/02/06 12:15:21;;;;;;;;;;;;;;;23.86;27.29;96026.97;4936082;29;803;-67
2023/02/06 12:17:54;;;;;;;;;;;;;;;23.85;27.61;96038.72;4935945;29;1911;-67
2023/02/06 12:20:19;;;;;;;;;;;;;;;23.83;27.45;96033.56;4935893;29;814;-67
2023/02/06 12:22:49;;;;;;;;;;;;;;;23.84;27.52;96026.34;4926146;29;1060;-67
2023/02/06 12:25:23;;;;;;;;;;;;;;;23.85;27.54;96025.31;4935994;29;850;-68
2023/02/06 12:27:50;;;;;;;;;;;;;;;23.83;27.36;96025.53;4936238;29;799;-68
2023/02/06 12:30:37;;;;;;;;;;;;;;;23.84;27.18;96032.53;4936077;29;847;-68
2023/02/06 12:33:11;;;;;;;;;;;;;;;23.83;27.64;96043.47;4931227;29;969;-67
2023/02/06 12:35:43;;;;;;;;;;;;;;;23.84;27.40;96047.78;4945307;28;1325;-68
2023/02/06 12:38:12;;;;;;;;;;;;;;;23.83;27.40;96046.97;4935752;29;1911;-68
2023/02/06 12:40:42;;;;;;;;;;;;;;;23.82;27.33;96042.63;4950276;29;1408;-66
2023/02/06 12:43:12;;;;;;;;;;;;;;;23.82;27.49;96047.97;4935813;29;853;-66
2023/02/06 12:45:56;;;;;;;;;;;;;;;23.82;27.57;96039.13;4926055;29;984;-67
2023/02/06 12:48:51;;;;;;;;;;;;;;;23.80;27.40;96042.00;4936029;29;869;-67
2023/02/06 12:51:23;;;;;;;;;;;;;;;23.81;27.55;96049.00;4935141;29;1206;-67
2023/02/06 12:53:52;;;;;;;;;;;;;;;23.80;27.57;96055.41;4935970;29;861;-67
2023/02/06 12:56:27;;;;;;;;;;;;;;;23.82;27.34;96056.00;4942870;29;1306;-68
2023/02/06 12:59:05;;;;;;;;;;;;;;;23.81;27.64;96049.00;4935218;29;1911;-67
2023/02/06 13:01:36;;;;;;;;;;;;;;;23.80;27.36;96058.09;4935506;29;850;-67
2023/02/06 13:04:09;;;;;;;;;;;;;;;23.79;27.70;96049.22;4935546;29;806;-66